sensor_id;sensor_type;location;lat;lon;timestamp;temperature;humidity
31991;DHT22;18508;49.386;8.370;2024-02-21T00:00:36;8.20;99.90
31991;DHT22;18508;49.386;8.370;2024-02-21T00:03:05;8.20;99.90
31991;DHT22;18508;49.386;8.370;2024-02-21T00:05:34;8.20;99.90
31991;DHT22;18508;49.386;8.370;2024-02-21T00:08:03;8.20;1.00
31991;DHT22;18508;49.386;8.370;2024-02-21T00:10:33;8.20;1.00
31991;DHT22;18508;49.386;8.370;2024-02-21T00:13:02;8.20;1.00
31991;DHT22;18508;49.386;8.370;2024-02-21T00:15:31;8.20;43.90
31991;DHT22;18508;49.386;8.370;2024-02-21T00:18:00;8.20;99.90
31991;DHT22;18508;49.386;8.370;2024-02-21T00:20:29;8.20;99.90
31991;DHT22;18508;49.386;8.370;2024-02-21T00:22:57;8.20;99.90
31991;DHT22;18508;49.386;8.370;2024-02-21T00:25:26;8.20;1.00
31991;DHT22;18508;49.386;8.370;2024-02-21T00:27:55;8.20;1.00
31991;DHT22;18508;49.386;8.370;2024-02-21T00:30:23;8.20;1.00
31991;DHT22;18508;49.386;8.370;2024-02-21T00:32:51;8.10;79.00
31991;DHT22;18508;49.386;8.370;2024-02-21T00:35:20;8.20;79.70
31991;DHT22;18508;49.386;8.370;2024-02-21T00:37:48;8.20;99.90
31991;DHT22;18508;49.386;8.370;2024-02-21T00:40:17;8.20;99.90
31991;DHT22;18508;49.386;8.370;2024-02-21T00:42:47;8.20;99.90
31991;DHT22;18508;49.386;8.370;2024-02-21T00:45:16;8.10;99.90
31991;DHT22;18508;49.386;8.370;2024-02-21T00:47:45;8.10;99.90
31991;DHT22;18508;49.386;8.370;2024-02-21T00:50:13;8.10;99.90
31991;DHT22;18508;49.386;8.370;2024-02-21T00:52:42;8.00;99.90
31991;DHT22;18508;49.386;8.370;2024-02-21T00:55:11;8.00;99.90
31991;DHT22;18508;49.386;8.370;2024-02-21T00:57:40;8.00;99.90
31991;DHT22;18508;49.386;8.370;2024-02-21T01:00:09;7.90;99.90
31991;DHT22;18508;49.386;8.370;2024-02-21T01:02:40;7.90;99.90
31991;DHT22;18508;49.386;8.370;2024-02-21T01:05:08;7.90;99.90
31991;DHT22;18508;49.386;8.370;2024-02-21T01:07:38;8.00;99.90
31991;DHT22;18508;49.386;8.370;2024-02-21T01:10:08;8.00;99.90
31991;DHT22;18508;49.386;8.370;2024-02-21T01:12:37;7.90;99.90
31991;DHT22;18508;49.386;8.370;2024-02-21T01:15:05;7.80;99.90
31991;DHT22;18508;49.386;8.370;2024-02-21T01:17:34;7.80;99.90
31991;DHT22;18508;49.386;8.370;2024-02-21T01:20:03;7.80;99.90
31991;DHT22;18508;49.386;8.370;2024-02-21T01:22:32;7.80;99.90
31991;DHT22;18508;49.386;8.370;2024-02-21T01:25:01;7.80;99.90
31991;DHT22;18508;49.386;8.370;2024-02-21T01:27:29;7.80;99.90
31991;DHT22;18508;49.386;8.370;2024-02-21T01:29:57;7.80;99.90
31991;DHT22;18508;49.386;8.370;2024-02-21T01:32:25;7.80;99.90
31991;DHT22;18508;49.386;8.370;2024-02-21T01:34:53;7.80;99.90
31991;DHT22;18508;49.386;8.370;2024-02-21T01:37:23;7.80;99.90
31991;DHT22;18508;49.386;8.370;2024-02-21T01:39:52;7.80;99.90
31991;DHT22;18508;49.386;8.370;2024-02-21T01:42:20;7.80;99.90
31991;DHT22;18508;49.386;8.370;2024-02-21T01:44:48;7.80;99.90
31991;DHT22;18508;49.386;8.370;2024-02-21T01:47:16;8.00;99.90
31991;DHT22;18508;49.386;8.370;2024-02-21T01:49:45;7.90;99.90
31991;DHT22;18508;49.386;8.370;2024-02-21T01:52:16;7.80;99.90
31991;DHT22;18508;49.386;8.370;2024-02-21T01:54:47;7.80;99.90
31991;DHT22;18508;49.386;8.370;2024-02-21T01:57:16;7.80;99.90
31991;DHT22;18508;49.386;8.370;2024-02-21T01:59:44;7.70;99.90
31991;DHT22;18508;49.386;8.370;2024-02-21T02:02:13;7.70;99.90
31991;DHT22;18508;49.386;8.370;2024-02-21T02:04:43;7.70;99.90
31991;DHT22;18508;49.386;8.370;2024-02-21T02:07:12;7.70;99.90
31991;DHT22;18508;49.386;8.370;2024-02-21T02:09:41;7.70;99.90
31991;DHT22;18508;49.386;8.370;2024-02-21T02:12:11;7.60;99.90
31991;DHT22;18508;49.386;8.370;2024-02-21T02:14:40;7.60;99.90
31991;DHT22;18508;49.386;8.370;2024-02-21T02:17:09;7.60;99.90
31991;DHT22;18508;49.386;8.370;2024-02-21T02:19:37;7.60;99.90
31991;DHT22;18508;49.386;8.370;2024-02-21T02:22:15;7.60;99.90
31991;DHT22;18508;49.386;8.370;2024-02-21T02:24:50;7.60;99.90
31991;DHT22;18508;49.386;8.370;2024-02-21T02:27:20;7.50;99.90
31991;DHT22;18508;49.386;8.370;2024-02-21T02:29:49;7.40;99.90
31991;DHT22;18508;49.386;8.370;2024-02-21T02:32:19;7.40;99.90
31991;DHT22;18508;49.386;8.370;2024-02-21T02:34:48;7.40;99.90
31991;DHT22;18508;49.386;8.370;2024-02-21T02:37:16;7.40;99.90
31991;DHT22;18508;49.386;8.370;2024-02-21T02:39:45;7.30;99.90
31991;DHT22;18508;49.386;8.370;2024-02-21T02:42:14;7.30;99.90
31991;DHT22;18508;49.386;8.370;2024-02-21T02:44:43;7.30;99.90
31991;DHT22;18508;49.386;8.370;2024-02-21T02:47:11;7.30;99.90
31991;DHT22;18508;49.386;8.370;2024-02-21T02:49:39;7.30;99.90
31991;DHT22;18508;49.386;8.370;2024-02-21T02:52:08;7.30;99.90
31991;DHT22;18508;49.386;8.370;2024-02-21T02:54:36;7.30;99.90
31991;DHT22;18508;49.386;8.370;2024-02-21T02:57:05;7.30;99.90
31991;DHT22;18508;49.386;8.370;2024-02-21T02:59:35;7.30;99.90
31991;DHT22;18508;49.386;8.370;2024-02-21T03:02:03;7.00;99.90
31991;DHT22;18508;49.386;8.370;2024-02-21T03:04:31;7.30;99.90
31991;DHT22;18508;49.386;8.370;2024-02-21T03:07:00;7.30;99.90
31991;DHT22;18508;49.386;8.370;2024-02-21T03:09:28;7.30;99.90
31991;DHT22;18508;49.386;8.370;2024-02-21T03:11:57;7.30;99.90
31991;DHT22;18508;49.386;8.370;2024-02-21T03:14:29;7.30;99.90
31991;DHT22;18508;49.386;8.370;2024-02-21T03:16:59;7.30;99.90
31991;DHT22;18508;49.386;8.370;2024-02-21T03:19:27;7.30;99.90
31991;DHT22;18508;49.386;8.370;2024-02-21T03:21:56;7.30;99.90
31991;DHT22;18508;49.386;8.370;2024-02-21T03:24:24;7.30;99.90
31991;DHT22;18508;49.386;8.370;2024-02-21T03:26:53;7.20;99.90
31991;DHT22;18508;49.386;8.370;2024-02-21T03:29:21;7.20;99.90
31991;DHT22;18508;49.386;8.370;2024-02-21T03:31:49;7.20;99.90
31991;DHT22;18508;49.386;8.370;2024-02-21T03:34:19;7.20;99.90
31991;DHT22;18508;49.386;8.370;2024-02-21T03:36:48;7.10;99.90
31991;DHT22;18508;49.386;8.370;2024-02-21T03:39:16;7.00;99.90
31991;DHT22;18508;49.386;8.370;2024-02-21T03:41:47;7.00;99.90
31991;DHT22;18508;49.386;8.370;2024-02-21T03:44:15;6.90;99.90
31991;DHT22;18508;49.386;8.370;2024-02-21T03:46:44;6.90;99.90
31991;DHT22;18508;49.386;8.370;2024-02-21T03:49:12;6.90;99.90
31991;DHT22;18508;49.386;8.370;2024-02-21T03:51:41;6.80;99.90
31991;DHT22;18508;49.386;8.370;2024-02-21T03:54:10;6.80;99.90
31991;DHT22;18508;49.386;8.370;2024-02-21T03:56:38;6.70;99.90
31991;DHT22;18508;49.386;8.370;2024-02-21T03:59:07;6.70;99.90
31991;DHT22;18508;49.386;8.370;2024-02-21T04:01:35;6.80;99.90
31991;DHT22;18508;49.386;8.370;2024-02-21T04:04:04;6.70;99.90
31991;DHT22;18508;49.386;8.370;2024-02-21T04:06:32;6.80;99.90
31991;DHT22;18508;49.386;8.370;2024-02-21T04:09:02;6.70;99.90
31991;DHT22;18508;49.386;8.370;2024-02-21T04:11:30;6.80;99.90
31991;DHT22;18508;49.386;8.370;2024-02-21T04:13:58;6.80;99.90
31991;DHT22;18508;49.386;8.370;2024-02-21T04:16:26;6.80;99.90
31991;DHT22;18508;49.386;8.370;2024-02-21T04:18:55;6.70;99.90
31991;DHT22;18508;49.386;8.370;2024-02-21T04:21:23;6.70;99.90
31991;DHT22;18508;49.386;8.370;2024-02-21T04:23:51;6.70;99.90
31991;DHT22;18508;49.386;8.370;2024-02-21T04:26:21;6.70;99.90
31991;DHT22;18508;49.386;8.370;2024-02-21T04:28:49;6.60;99.90
31991;DHT22;18508;49.386;8.370;2024-02-21T04:31:17;6.60;99.90
31991;DHT22;18508;49.386;8.370;2024-02-21T04:33:46;6.60;99.90
31991;DHT22;18508;49.386;8.370;2024-02-21T04:36:14;6.60;99.90
31991;DHT22;18508;49.386;8.370;2024-02-21T04:38:43;6.50;99.90
31991;DHT22;18508;49.386;8.370;2024-02-21T04:41:11;6.70;99.90
31991;DHT22;18508;49.386;8.370;2024-02-21T04:43:41;6.50;99.90
31991;DHT22;18508;49.386;8.370;2024-02-21T04:46:10;6.40;99.90
31991;DHT22;18508;49.386;8.370;2024-02-21T04:48:39;6.40;99.90
31991;DHT22;18508;49.386;8.370;2024-02-21T04:51:07;6.40;99.90
31991;DHT22;18508;49.386;8.370;2024-02-21T04:53:35;6.40;99.90
31991;DHT22;18508;49.386;8.370;2024-02-21T04:56:04;6.40;99.90
31991;DHT22;18508;49.386;8.370;2024-02-21T04:58:32;6.40;99.90
31991;DHT22;18508;49.386;8.370;2024-02-21T05:01:01;6.40;99.90
31991;DHT22;18508;49.386;8.370;2024-02-21T05:03:30;6.40;99.90
31991;DHT22;18508;49.386;8.370;2024-02-21T05:05:59;6.40;99.90
31991;DHT22;18508;49.386;8.370;2024-02-21T05:08:27;6.40;99.90
31991;DHT22;18508;49.386;8.370;2024-02-21T05:10:55;6.40;99.90
31991;DHT22;18508;49.386;8.370;2024-02-21T05:13:23;6.40;99.90
31991;DHT22;18508;49.386;8.370;2024-02-21T05:15:52;6.30;99.90
31991;DHT22;18508;49.386;8.370;2024-02-21T05:18:22;6.30;99.90
31991;DHT22;18508;49.386;8.370;2024-02-21T05:20:50;6.20;99.90
31991;DHT22;18508;49.386;8.370;2024-02-21T05:23:18;6.20;99.90
31991;DHT22;18508;49.386;8.370;2024-02-21T05:25:46;6.20;99.90
31991;DHT22;18508;49.386;8.370;2024-02-21T05:28:14;6.20;99.90
31991;DHT22;18508;49.386;8.370;2024-02-21T05:30:43;6.10;99.90
31991;DHT22;18508;49.386;8.370;2024-02-21T05:33:11;6.10;99.90
31991;DHT22;18508;49.386;8.370;2024-02-21T05:35:49;6.10;99.90
31991;DHT22;18508;49.386;8.370;2024-02-21T05:38:18;6.10;99.90
31991;DHT22;18508;49.386;8.370;2024-02-21T05:40:46;6.00;99.90
31991;DHT22;18508;49.386;8.370;2024-02-21T05:43:14;6.00;99.90
31991;DHT22;18508;49.386;8.370;2024-02-21T05:45:42;6.00;99.90
31991;DHT22;18508;49.386;8.370;2024-02-21T05:48:10;6.00;99.90
31991;DHT22;18508;49.386;8.370;2024-02-21T05:50:39;5.90;99.90
31991;DHT22;18508;49.386;8.370;2024-02-21T05:53:09;5.70;99.90
31991;DHT22;18508;49.386;8.370;2024-02-21T05:55:38;5.80;99.90
31991;DHT22;18508;49.386;8.370;2024-02-21T05:58:07;5.80;99.90
31991;DHT22;18508;49.386;8.370;2024-02-21T06:00:39;5.70;99.90
31991;DHT22;18508;49.386;8.370;2024-02-21T06:03:07;5.80;99.90
31991;DHT22;18508;49.386;8.370;2024-02-21T06:05:37;5.70;99.90
31991;DHT22;18508;49.386;8.370;2024-02-21T06:08:06;5.70;99.90
31991;DHT22;18508;49.386;8.370;2024-02-21T06:10:36;5.70;99.90
31991;DHT22;18508;49.386;8.370;2024-02-21T06:13:04;5.70;99.90
31991;DHT22;18508;49.386;8.370;2024-02-21T06:15:32;5.70;99.90
31991;DHT22;18508;49.386;8.370;2024-02-21T06:18:00;5.70;99.90
31991;DHT22;18508;49.386;8.370;2024-02-21T06:20:29;5.70;99.90
31991;DHT22;18508;49.386;8.370;2024-02-21T06:22:57;5.70;99.90
31991;DHT22;18508;49.386;8.370;2024-02-21T06:25:26;5.60;99.90
31991;DHT22;18508;49.386;8.370;2024-02-21T06:27:55;5.60;99.90
31991;DHT22;18508;49.386;8.370;2024-02-21T06:30:24;5.50;99.90
31991;DHT22;18508;49.386;8.370;2024-02-21T06:32:52;5.60;99.90
31991;DHT22;18508;49.386;8.370;2024-02-21T06:35:23;5.60;99.90
31991;DHT22;18508;49.386;8.370;2024-02-21T06:37:52;5.60;99.90
31991;DHT22;18508;49.386;8.370;2024-02-21T06:40:22;5.60;99.90
31991;DHT22;18508;49.386;8.370;2024-02-21T06:45:20;5.60;99.90
31991;DHT22;18508;49.386;8.370;2024-02-21T06:47:48;5.50;99.90
31991;DHT22;18508;49.386;8.370;2024-02-21T06:50:16;5.50;99.90
31991;DHT22;18508;49.386;8.370;2024-02-21T06:52:45;5.60;99.90
31991;DHT22;18508;49.386;8.370;2024-02-21T06:55:13;5.50;99.90
31991;DHT22;18508;49.386;8.370;2024-02-21T06:57:41;5.50;99.90
31991;DHT22;18508;49.386;8.370;2024-02-21T07:00:11;5.50;99.90
31991;DHT22;18508;49.386;8.370;2024-02-21T07:02:41;5.50;99.90
31991;DHT22;18508;49.386;8.370;2024-02-21T07:05:09;5.50;99.90
31991;DHT22;18508;49.386;8.370;2024-02-21T07:07:38;5.60;99.90
31991;DHT22;18508;49.386;8.370;2024-02-21T07:10:07;5.60;99.90
31991;DHT22;18508;49.386;8.370;2024-02-21T07:12:36;5.60;99.90
31991;DHT22;18508;49.386;8.370;2024-02-21T07:15:05;5.60;99.90
31991;DHT22;18508;49.386;8.370;2024-02-21T07:17:34;5.60;99.90
31991;DHT22;18508;49.386;8.370;2024-02-21T07:20:04;5.70;99.90
31991;DHT22;18508;49.386;8.370;2024-02-21T07:22:32;5.80;99.90
31991;DHT22;18508;49.386;8.370;2024-02-21T07:25:01;5.80;99.90
31991;DHT22;18508;49.386;8.370;2024-02-21T07:27:32;5.90;99.90
31991;DHT22;18508;49.386;8.370;2024-02-21T07:30:00;5.90;99.90
31991;DHT22;18508;49.386;8.370;2024-02-21T07:32:28;6.00;99.90
31991;DHT22;18508;49.386;8.370;2024-02-21T07:34:57;6.10;99.90
31991;DHT22;18508;49.386;8.370;2024-02-21T07:37:27;6.20;99.90
31991;DHT22;18508;49.386;8.370;2024-02-21T07:39:59;6.60;99.90
31991;DHT22;18508;49.386;8.370;2024-02-21T07:42:27;6.30;99.90
31991;DHT22;18508;49.386;8.370;2024-02-21T07:44:55;6.40;99.90
31991;DHT22;18508;49.386;8.370;2024-02-21T07:47:24;6.40;99.90
31991;DHT22;18508;49.386;8.370;2024-02-21T07:49:53;6.80;99.90
31991;DHT22;18508;49.386;8.370;2024-02-21T07:52:22;6.70;99.90
31991;DHT22;18508;49.386;8.370;2024-02-21T07:54:53;6.60;99.90
31991;DHT22;18508;49.386;8.370;2024-02-21T07:57:21;6.70;99.90
31991;DHT22;18508;49.386;8.370;2024-02-21T07:59:49;6.80;80.50
31991;DHT22;18508;49.386;8.370;2024-02-21T08:02:17;6.80;1.00
31991;DHT22;18508;49.386;8.370;2024-02-21T08:04:46;6.90;1.00
31991;DHT22;18508;49.386;8.370;2024-02-21T08:07:14;7.00;10.30
31991;DHT22;18508;49.386;8.370;2024-02-21T08:09:43;7.10;99.90
31991;DHT22;18508;49.386;8.370;2024-02-21T08:12:13;7.20;1.00
31991;DHT22;18508;49.386;8.370;2024-02-21T08:14:41;7.30;1.00
31991;DHT22;18508;49.386;8.370;2024-02-21T08:17:10;7.10;99.90
31991;DHT22;18508;49.386;8.370;2024-02-21T08:19:39;7.30;96.20
31991;DHT22;18508;49.386;8.370;2024-02-21T08:22:08;7.40;1.00
31991;DHT22;18508;49.386;8.370;2024-02-21T08:24:37;7.50;1.00
31991;DHT22;18508;49.386;8.370;2024-02-21T08:27:05;7.50;1.00
31991;DHT22;18508;49.386;8.370;2024-02-21T08:29:35;7.70;1.00
31991;DHT22;18508;49.386;8.370;2024-02-21T08:32:04;8.00;99.90
31991;DHT22;18508;49.386;8.370;2024-02-21T08:34:37;7.70;99.90
31991;DHT22;18508;49.386;8.370;2024-02-21T08:37:05;7.90;1.00
31991;DHT22;18508;49.386;8.370;2024-02-21T08:39:34;8.00;99.90
31991;DHT22;18508;49.386;8.370;2024-02-21T08:42:03;8.00;99.90
31991;DHT22;18508;49.386;8.370;2024-02-21T08:44:31;8.00;1.00
31991;DHT22;18508;49.386;8.370;2024-02-21T08:47:01;8.30;1.00
31991;DHT22;18508;49.386;8.370;2024-02-21T08:49:31;8.00;1.00
31991;DHT22;18508;49.386;8.370;2024-02-21T08:52:01;8.00;1.00
31991;DHT22;18508;49.386;8.370;2024-02-21T08:54:33;8.10;99.90
31991;DHT22;18508;49.386;8.370;2024-02-21T08:59:30;8.20;96.30
31991;DHT22;18508;49.386;8.370;2024-02-21T09:01:58;8.30;54.80
31991;DHT22;18508;49.386;8.370;2024-02-21T09:04:28;8.30;1.00
31991;DHT22;18508;49.386;8.370;2024-02-21T09:06:56;8.30;1.00
31991;DHT22;18508;49.386;8.370;2024-02-21T09:09:24;8.30;1.00
31991;DHT22;18508;49.386;8.370;2024-02-21T09:11:55;8.30;1.00
31991;DHT22;18508;49.386;8.370;2024-02-21T09:14:24;8.40;1.00
31991;DHT22;18508;49.386;8.370;2024-02-21T09:16:53;8.50;1.00
31991;DHT22;18508;49.386;8.370;2024-02-21T09:19:23;8.40;1.00
31991;DHT22;18508;49.386;8.370;2024-02-21T09:21:52;8.60;1.00
31991;DHT22;18508;49.386;8.370;2024-02-21T09:24:20;8.60;1.00
31991;DHT22;18508;49.386;8.370;2024-02-21T09:26:49;8.80;99.90
31991;DHT22;18508;49.386;8.370;2024-02-21T09:29:17;8.90;99.90
31991;DHT22;18508;49.386;8.370;2024-02-21T09:31:51;9.00;99.90
31991;DHT22;18508;49.386;8.370;2024-02-21T09:34:20;9.10;99.90
31991;DHT22;18508;49.386;8.370;2024-02-21T09:36:49;9.30;99.90
31991;DHT22;18508;49.386;8.370;2024-02-21T09:39:18;9.30;99.90
31991;DHT22;18508;49.386;8.370;2024-02-21T09:41:50;9.40;99.90
31991;DHT22;18508;49.386;8.370;2024-02-21T09:44:24;9.40;99.90
31991;DHT22;18508;49.386;8.370;2024-02-21T09:47:02;9.60;99.90
31991;DHT22;18508;49.386;8.370;2024-02-21T09:49:33;9.60;99.90
31991;DHT22;18508;49.386;8.370;2024-02-21T09:52:04;9.80;99.90
31991;DHT22;18508;49.386;8.370;2024-02-21T09:54:34;9.70;99.90
31991;DHT22;18508;49.386;8.370;2024-02-21T09:57:04;9.90;99.90
31991;DHT22;18508;49.386;8.370;2024-02-21T09:59:33;10.10;99.90
31991;DHT22;18508;49.386;8.370;2024-02-21T10:02:01;10.00;99.90
31991;DHT22;18508;49.386;8.370;2024-02-21T10:04:30;10.10;99.90
31991;DHT22;18508;49.386;8.370;2024-02-21T10:06:59;10.10;99.90
31991;DHT22;18508;49.386;8.370;2024-02-21T10:09:28;10.30;99.90
31991;DHT22;18508;49.386;8.370;2024-02-21T10:12:08;10.40;99.90
31991;DHT22;18508;49.386;8.370;2024-02-21T10:14:38;10.50;99.90
31991;DHT22;18508;49.386;8.370;2024-02-21T10:17:06;10.50;99.90
31991;DHT22;18508;49.386;8.370;2024-02-21T10:19:37;10.40;99.90
31991;DHT22;18508;49.386;8.370;2024-02-21T10:22:08;10.60;99.90
31991;DHT22;18508;49.386;8.370;2024-02-21T10:24:37;10.50;99.90
31991;DHT22;18508;49.386;8.370;2024-02-21T10:27:10;10.30;99.90
31991;DHT22;18508;49.386;8.370;2024-02-21T10:29:40;10.40;99.90
31991;DHT22;18508;49.386;8.370;2024-02-21T10:32:10;10.50;99.90
31991;DHT22;18508;49.386;8.370;2024-02-21T10:34:40;10.60;99.90
31991;DHT22;18508;49.386;8.370;2024-02-21T10:37:09;10.60;99.90
31991;DHT22;18508;49.386;8.370;2024-02-21T10:39:39;10.70;99.90
31991;DHT22;18508;49.386;8.370;2024-02-21T10:42:11;11.00;99.90
31991;DHT22;18508;49.386;8.370;2024-02-21T10:44:41;11.00;99.90
31991;DHT22;18508;49.386;8.370;2024-02-21T10:47:11;11.10;99.90
31991;DHT22;18508;49.386;8.370;2024-02-21T10:49:42;11.00;99.90
31991;DHT22;18508;49.386;8.370;2024-02-21T10:52:19;10.90;99.90
31991;DHT22;18508;49.386;8.370;2024-02-21T10:54:55;11.00;99.90
31991;DHT22;18508;49.386;8.370;2024-02-21T10:57:26;10.90;99.90
31991;DHT22;18508;49.386;8.370;2024-02-21T10:59:56;10.90;99.90
31991;DHT22;18508;49.386;8.370;2024-02-21T11:02:27;11.10;99.90
31991;DHT22;18508;49.386;8.370;2024-02-21T11:04:59;11.10;99.60
31991;DHT22;18508;49.386;8.370;2024-02-21T11:07:28;11.30;99.90
31991;DHT22;18508;49.386;8.370;2024-02-21T11:09:59;11.60;99.70
31991;DHT22;18508;49.386;8.370;2024-02-21T11:12:33;11.60;96.90
31991;DHT22;18508;49.386;8.370;2024-02-21T11:15:05;11.40;99.90
31991;DHT22;18508;49.386;8.370;2024-02-21T11:17:33;11.70;96.00
31991;DHT22;18508;49.386;8.370;2024-02-21T11:20:16;11.60;95.10
31991;DHT22;18508;49.386;8.370;2024-02-21T11:22:45;11.60;92.30
31991;DHT22;18508;49.386;8.370;2024-02-21T11:25:21;11.60;93.50
31991;DHT22;18508;49.386;8.370;2024-02-21T11:27:59;11.60;91.80
31991;DHT22;18508;49.386;8.370;2024-02-21T11:30:30;11.60;91.50
31991;DHT22;18508;49.386;8.370;2024-02-21T11:33:01;11.80;90.90
31991;DHT22;18508;49.386;8.370;2024-02-21T11:35:34;11.70;91.60
31991;DHT22;18508;49.386;8.370;2024-02-21T11:38:09;11.70;90.90
31991;DHT22;18508;49.386;8.370;2024-02-21T11:40:44;11.70;89.30
31991;DHT22;18508;49.386;8.370;2024-02-21T11:43:15;11.60;88.00
31991;DHT22;18508;49.386;8.370;2024-02-21T11:45:43;11.60;89.90
31991;DHT22;18508;49.386;8.370;2024-02-21T11:48:12;11.70;88.20
31991;DHT22;18508;49.386;8.370;2024-02-21T11:50:40;11.60;89.30
31991;DHT22;18508;49.386;8.370;2024-02-21T11:53:09;11.70;91.00
31991;DHT22;18508;49.386;8.370;2024-02-21T11:55:38;11.60;91.40
31991;DHT22;18508;49.386;8.370;2024-02-21T11:58:06;12.10;91.70
31991;DHT22;18508;49.386;8.370;2024-02-21T12:00:36;12.00;88.40
31991;DHT22;18508;49.386;8.370;2024-02-21T12:03:04;12.10;86.00
31991;DHT22;18508;49.386;8.370;2024-02-21T12:05:33;12.20;85.30
31991;DHT22;18508;49.386;8.370;2024-02-21T12:08:02;12.30;84.90
31991;DHT22;18508;49.386;8.370;2024-02-21T12:10:30;12.20;79.10
31991;DHT22;18508;49.386;8.370;2024-02-21T12:13:07;12.40;90.50
31991;DHT22;18508;49.386;8.370;2024-02-21T12:15:38;12.40;78.90
31991;DHT22;18508;49.386;8.370;2024-02-21T12:18:07;12.50;78.50
31991;DHT22;18508;49.386;8.370;2024-02-21T12:20:35;12.40;74.80
31991;DHT22;18508;49.386;8.370;2024-02-21T12:23:04;12.30;75.00
31991;DHT22;18508;49.386;8.370;2024-02-21T12:25:33;12.30;99.90
31991;DHT22;18508;49.386;8.370;2024-02-21T12:28:01;12.50;76.90
31991;DHT22;18508;49.386;8.370;2024-02-21T12:30:30;12.20;72.90
31991;DHT22;18508;49.386;8.370;2024-02-21T12:33:01;12.10;73.20
31991;DHT22;18508;49.386;8.370;2024-02-21T12:35:30;12.00;74.20
31991;DHT22;18508;49.386;8.370;2024-02-21T12:38:00;12.20;74.00
31991;DHT22;18508;49.386;8.370;2024-02-21T12:40:29;12.50;73.10
31991;DHT22;18508;49.386;8.370;2024-02-21T12:42:59;12.50;72.70
31991;DHT22;18508;49.386;8.370;2024-02-21T12:45:30;12.50;70.80
31991;DHT22;18508;49.386;8.370;2024-02-21T12:47:58;12.30;70.80
31991;DHT22;18508;49.386;8.370;2024-02-21T12:50:28;12.30;72.40
31991;DHT22;18508;49.386;8.370;2024-02-21T12:52:56;12.20;71.50
31991;DHT22;18508;49.386;8.370;2024-02-21T12:55:25;12.50;73.00
31991;DHT22;18508;49.386;8.370;2024-02-21T12:57:53;12.40;71.00
31991;DHT22;18508;49.386;8.370;2024-02-21T13:00:21;12.60;72.10
31991;DHT22;18508;49.386;8.370;2024-02-21T13:02:53;12.60;72.80
31991;DHT22;18508;49.386;8.370;2024-02-21T13:05:21;12.50;69.90
31991;DHT22;18508;49.386;8.370;2024-02-21T13:07:51;12.50;71.10
31991;DHT22;18508;49.386;8.370;2024-02-21T13:10:19;12.50;69.40
31991;DHT22;18508;49.386;8.370;2024-02-21T13:12:48;12.60;68.40
31991;DHT22;18508;49.386;8.370;2024-02-21T13:15:17;12.40;66.20
31991;DHT22;18508;49.386;8.370;2024-02-21T13:17:45;12.30;66.40
31991;DHT22;18508;49.386;8.370;2024-02-21T13:20:14;12.30;66.10
31991;DHT22;18508;49.386;8.370;2024-02-21T13:22:44;12.20;66.80
31991;DHT22;18508;49.386;8.370;2024-02-21T13:25:14;12.30;66.60
31991;DHT22;18508;49.386;8.370;2024-02-21T13:27:45;12.20;64.80
31991;DHT22;18508;49.386;8.370;2024-02-21T13:30:14;12.20;64.50
31991;DHT22;18508;49.386;8.370;2024-02-21T13:32:44;12.30;66.40
31991;DHT22;18508;49.386;8.370;2024-02-21T13:35:14;12.40;67.30
31991;DHT22;18508;49.386;8.370;2024-02-21T13:37:43;12.40;60.20
31991;DHT22;18508;49.386;8.370;2024-02-21T13:40:14;12.40;65.00
31991;DHT22;18508;49.386;8.370;2024-02-21T13:42:43;12.30;63.10
31991;DHT22;18508;49.386;8.370;2024-02-21T13:47:40;12.20;48.50
31991;DHT22;18508;49.386;8.370;2024-02-21T13:50:08;12.20;62.70
31991;DHT22;18508;49.386;8.370;2024-02-21T13:52:37;12.20;61.50
31991;DHT22;18508;49.386;8.370;2024-02-21T13:55:06;12.30;63.40
31991;DHT22;18508;49.386;8.370;2024-02-21T13:57:36;12.20;61.30
31991;DHT22;18508;49.386;8.370;2024-02-21T14:00:07;12.20;61.90
31991;DHT22;18508;49.386;8.370;2024-02-21T14:02:37;12.20;62.20
31991;DHT22;18508;49.386;8.370;2024-02-21T14:05:07;12.10;60.50
31991;DHT22;18508;49.386;8.370;2024-02-21T14:07:36;12.20;60.60
31991;DHT22;18508;49.386;8.370;2024-02-21T14:10:06;12.20;60.30
31991;DHT22;18508;49.386;8.370;2024-02-21T14:12:38;12.10;60.40
31991;DHT22;18508;49.386;8.370;2024-02-21T14:15:07;12.10;60.20
31991;DHT22;18508;49.386;8.370;2024-02-21T14:17:37;11.90;59.70
31991;DHT22;18508;49.386;8.370;2024-02-21T14:20:07;11.90;60.50
31991;DHT22;18508;49.386;8.370;2024-02-21T14:22:35;9.70;72.50
31991;DHT22;18508;49.386;8.370;2024-02-21T14:25:04;11.90;60.30
31991;DHT22;18508;49.386;8.370;2024-02-21T14:27:33;12.00;60.80
31991;DHT22;18508;49.386;8.370;2024-02-21T14:30:05;12.10;61.50
31991;DHT22;18508;49.386;8.370;2024-02-21T14:32:35;12.00;61.70
31991;DHT22;18508;49.386;8.370;2024-02-21T14:35:04;12.10;59.70
31991;DHT22;18508;49.386;8.370;2024-02-21T14:37:33;12.20;61.40
31991;DHT22;18508;49.386;8.370;2024-02-21T14:40:03;12.20;60.40
31991;DHT22;18508;49.386;8.370;2024-02-21T14:42:32;12.10;59.50
31991;DHT22;18508;49.386;8.370;2024-02-21T14:45:01;12.00;58.70
31991;DHT22;18508;49.386;8.370;2024-02-21T14:47:33;12.00;59.50
31991;DHT22;18508;49.386;8.370;2024-02-21T14:50:03;12.30;56.70
31991;DHT22;18508;49.386;8.370;2024-02-21T14:52:32;12.10;59.60
31991;DHT22;18508;49.386;8.370;2024-02-21T14:55:03;12.10;57.60
31991;DHT22;18508;49.386;8.370;2024-02-21T14:57:32;12.00;56.80
31991;DHT22;18508;49.386;8.370;2024-02-21T15:00:00;12.00;56.10
31991;DHT22;18508;49.386;8.370;2024-02-21T15:02:29;11.90;56.00
31991;DHT22;18508;49.386;8.370;2024-02-21T15:04:59;11.80;56.80
31991;DHT22;18508;49.386;8.370;2024-02-21T15:07:27;11.80;55.80
31991;DHT22;18508;49.386;8.370;2024-02-21T15:09:56;11.60;55.60
31991;DHT22;18508;49.386;8.370;2024-02-21T15:12:27;11.70;66.60
31991;DHT22;18508;49.386;8.370;2024-02-21T15:14:56;11.60;55.90
31991;DHT22;18508;49.386;8.370;2024-02-21T15:17:26;11.60;54.70
31991;DHT22;18508;49.386;8.370;2024-02-21T15:19:54;11.60;55.20
31991;DHT22;18508;49.386;8.370;2024-02-21T15:22:27;11.60;58.70
31991;DHT22;18508;49.386;8.370;2024-02-21T15:24:55;11.50;54.70
31991;DHT22;18508;49.386;8.370;2024-02-21T15:27:23;11.50;55.00
31991;DHT22;18508;49.386;8.370;2024-02-21T15:29:53;11.50;53.50
31991;DHT22;18508;49.386;8.370;2024-02-21T15:32:21;11.40;66.00
31991;DHT22;18508;49.386;8.370;2024-02-21T15:34:50;11.60;61.20
31991;DHT22;18508;49.386;8.370;2024-02-21T15:37:18;11.40;54.30
31991;DHT22;18508;49.386;8.370;2024-02-21T15:39:48;11.40;53.70
31991;DHT22;18508;49.386;8.370;2024-02-21T15:42:16;11.40;54.40
31991;DHT22;18508;49.386;8.370;2024-02-21T15:44:44;11.40;54.90
31991;DHT22;18508;49.386;8.370;2024-02-21T15:47:12;11.10;53.00
31991;DHT22;18508;49.386;8.370;2024-02-21T15:49:42;11.20;54.80
31991;DHT22;18508;49.386;8.370;2024-02-21T15:52:11;11.30;56.10
31991;DHT22;18508;49.386;8.370;2024-02-21T15:54:39;11.20;56.20
31991;DHT22;18508;49.386;8.370;2024-02-21T15:57:09;11.10;55.50
31991;DHT22;18508;49.386;8.370;2024-02-21T15:59:37;11.10;55.60
31991;DHT22;18508;49.386;8.370;2024-02-21T16:02:06;11.10;56.00